createdAt,value
2016-11-15T00:00:18.574Z,1015.04
2016-11-15T00:01:28.244Z,1015.02
2016-11-15T00:02:38.548Z,1014.99
2016-11-15T00:03:48.845Z,1014.97
2016-11-15T00:04:58.829Z,1015
2016-11-15T00:06:09.172Z,1014.93
2016-11-15T00:07:19.165Z,1014.96
2016-11-15T00:08:29.462Z,1014.89
2016-11-15T00:09:39.784Z,1014.88
2016-11-15T00:10:49.816Z,1014.85
2016-11-15T00:11:59.818Z,1014.84
2016-11-15T00:13:10.088Z,1014.87
2016-11-15T00:14:20.389Z,1014.89
2016-11-15T00:15:30.405Z,1014.89
2016-11-15T00:16:40.719Z,1014.9
2016-11-15T00:17:50.390Z,1014.87
2016-11-15T00:19:00.789Z,1014.85
2016-11-15T00:20:11.084Z,1014.85
2016-11-15T00:21:21.437Z,1014.86
2016-11-15T00:22:31.433Z,1014.81
2016-11-15T00:23:41.131Z,1014.79
2016-11-15T00:24:51.467Z,1014.81
2016-11-15T00:26:01.450Z,1014.78
2016-11-15T00:27:12.023Z,1014.8
2016-11-15T00:28:21.699Z,1014.82
2016-11-15T00:29:31.988Z,1014.78
2016-11-15T00:30:42.046Z,1014.78
2016-11-15T00:31:51.724Z,1014.77
2016-11-15T00:33:02.015Z,1014.78
2016-11-15T00:34:11.731Z,1014.77
2016-11-15T00:35:22.034Z,1014.73
2016-11-15T00:36:32.017Z,1014.71
2016-11-15T00:37:42.315Z,1014.7
2016-11-15T00:38:52.615Z,1014.71
2016-11-15T00:40:02.929Z,1014.71
2016-11-15T00:41:12.919Z,1014.68
2016-11-15T00:42:23.245Z,1014.7
2016-11-15T00:43:33.549Z,1014.69
2016-11-15T00:44:43.840Z,1014.65
2016-11-15T00:45:53.502Z,1014.6
2016-11-15T00:47:03.513Z,1014.61
2016-11-15T00:48:13.508Z,1014.63
2016-11-15T00:49:23.504Z,1014.64
2016-11-15T00:50:33.829Z,1014.58
2016-11-15T00:51:43.808Z,1014.58
2016-11-15T00:52:54.124Z,1014.57
2016-11-15T00:54:04.476Z,1014.58
2016-11-15T00:55:14.466Z,1014.55
2016-11-15T00:56:24.780Z,1014.54
2016-11-15T00:57:34.779Z,1014.52
2016-11-15T00:58:44.768Z,1014.53
2016-11-15T00:59:54.467Z,1014.52
2016-11-15T01:01:04.470Z,1014.5
2016-11-15T01:02:14.469Z,1014.51
2016-11-15T01:03:24.472Z,1014.5
2016-11-15T01:04:34.449Z,1014.53
2016-11-15T01:05:44.469Z,1014.5
2016-11-15T01:06:54.471Z,1014.52
2016-11-15T01:08:04.486Z,1014.54
2016-11-15T01:09:15.051Z,1014.56
2016-11-15T01:10:25.329Z,1014.51
2016-11-15T01:11:35.644Z,1014.47
2016-11-15T01:12:45.928Z,1014.48
2016-11-15T01:13:56.210Z,1014.5
2016-11-15T01:15:06.518Z,1014.45
2016-11-15T01:16:16.511Z,1014.51
2016-11-15T01:17:26.192Z,1014.52
2016-11-15T01:18:35.886Z,1014.5
2016-11-15T01:19:46.188Z,1014.48
2016-11-15T01:20:55.568Z,1014.48
2016-11-15T01:22:05.599Z,1014.45
2016-11-15T01:23:15.589Z,1014.41
2016-11-15T01:24:25.604Z,1014.41
2016-11-15T01:25:35.589Z,1014.41
2016-11-15T01:26:45.890Z,1014.38
2016-11-15T01:27:55.595Z,1014.35
2016-11-15T01:29:05.935Z,1014.38
2016-11-15T01:30:16.253Z,1014.36
2016-11-15T01:31:26.568Z,1014.38
2016-11-15T01:32:36.258Z,1014.37
2016-11-15T01:33:45.982Z,1014.38
2016-11-15T01:34:56.000Z,1014.39
2016-11-15T01:36:06.000Z,1014.32
2016-11-15T01:37:15.973Z,1014.32
2016-11-15T01:38:25.960Z,1014.28
2016-11-15T01:39:36.285Z,1014.34
2016-11-15T01:40:45.364Z,1014.31
2016-11-15T01:41:55.679Z,1014.31
2016-11-15T01:43:05.667Z,1014.35
2016-11-15T01:44:15.347Z,1014.33
2016-11-15T01:45:25.356Z,1014.36
2016-11-15T01:46:35.345Z,1014.43
2016-11-15T01:47:45.368Z,1014.41
2016-11-15T01:48:55.689Z,1014.44
2016-11-15T01:50:05.681Z,1014.41
2016-11-15T01:51:15.979Z,1014.45
2016-11-15T01:52:25.969Z,1014.42
2016-11-15T01:53:35.945Z,1014.41
2016-11-15T01:54:46.245Z,1014.4
2016-11-15T01:55:56.242Z,1014.38
2016-11-15T01:57:05.931Z,1014.39
2016-11-15T01:58:16.218Z,1014.37
2016-11-15T01:59:26.231Z,1014.36
2016-11-15T02:00:36.529Z,1014.35
2016-11-15T02:01:46.542Z,1014.32
2016-11-15T02:02:56.540Z,1014.32
2016-11-15T02:04:06.845Z,1014.32
2016-11-15T02:05:17.212Z,1014.3
2016-11-15T02:06:26.887Z,1014.34
2016-11-15T02:07:37.212Z,1014.31
2016-11-15T02:08:47.530Z,1014.3
2016-11-15T02:09:57.820Z,1014.31
2016-11-15T02:11:07.841Z,1014.33
2016-11-15T02:12:17.817Z,1014.4
2016-11-15T02:13:27.807Z,1014.35
2016-11-15T02:14:37.489Z,1014.38
2016-11-15T02:15:47.124Z,1014.37
2016-11-15T02:16:57.475Z,1014.37
2016-11-15T02:18:07.469Z,1014.37
2016-11-15T02:19:17.774Z,1014.39
2016-11-15T02:20:28.041Z,1014.37
2016-11-15T02:21:38.604Z,1014.35
2016-11-15T02:22:48.589Z,1014.35
2016-11-15T02:23:58.885Z,1014.34
2016-11-15T02:25:08.868Z,1014.36
2016-11-15T02:26:18.867Z,1014.36
2016-11-15T02:27:29.168Z,1014.36
2016-11-15T02:28:39.478Z,1014.4
2016-11-15T02:29:49.468Z,1014.4
2016-11-15T02:30:59.163Z,1014.43
2016-11-15T02:32:09.476Z,1014.43
2016-11-15T02:33:19.468Z,1014.43
2016-11-15T02:34:29.784Z,1014.43
2016-11-15T02:35:40.087Z,1014.41
2016-11-15T02:36:50.392Z,1014.41
2016-11-15T02:38:00.679Z,1014.42
2016-11-15T02:39:10.981Z,1014.37
2016-11-15T02:40:21.295Z,1014.41
2016-11-15T02:41:31.601Z,1014.36
2016-11-15T02:42:41.893Z,1014.34
2016-11-15T02:43:51.566Z,1014.33
2016-11-15T02:45:01.855Z,1014.3
2016-11-15T02:46:11.523Z,1014.31
2016-11-15T02:47:21.254Z,1014.28
2016-11-15T02:48:31.544Z,1014.31
2016-11-15T02:49:41.528Z,1014.28
2016-11-15T02:50:51.798Z,1014.32
2016-11-15T02:52:01.796Z,1014.32
2016-11-15T02:53:12.110Z,1014.32
2016-11-15T02:54:22.431Z,1014.3
2016-11-15T02:55:32.708Z,1014.32
2016-11-15T02:56:43.023Z,1014.33
2016-11-15T02:57:53.327Z,1014.38
2016-11-15T02:59:03.641Z,1014.42
2016-11-15T03:00:13.938Z,1014.39
2016-11-15T03:01:24.233Z,1014.41
2016-11-15T03:32:46.421Z,1014.18
2016-11-15T03:33:56.706Z,1014.21
2016-11-15T03:35:07.000Z,1014.23
2016-11-15T03:36:17.283Z,1014.19
2016-11-15T03:37:27.579Z,1014.23
2016-11-15T03:38:37.854Z,1014.24
2016-11-15T03:39:47.842Z,1014.25
2016-11-15T03:40:57.803Z,1014.27
2016-11-15T03:42:07.795Z,1014.3
2016-11-15T03:43:17.768Z,1014.37
2016-11-15T03:44:27.451Z,1014.41
2016-11-15T03:45:37.428Z,1014.37
2016-11-15T03:46:47.448Z,1014.43
2016-11-15T03:47:57.428Z,1014.44
2016-11-15T03:49:07.425Z,1014.45
2016-11-15T03:50:17.421Z,1014.44
2016-11-15T03:51:27.390Z,1014.43
2016-11-15T03:52:37.378Z,1014.42
2016-11-15T03:53:47.667Z,1014.4
2016-11-15T03:54:57.373Z,1014.39
2016-11-15T03:56:07.669Z,1014.35
2016-11-15T03:57:17.641Z,1014.38
2016-11-15T03:58:27.614Z,1014.35
2016-11-15T03:59:37.924Z,1014.32
2016-11-15T04:00:48.215Z,1014.32
2016-11-15T04:01:57.933Z,1014.27
2016-11-15T04:03:08.218Z,1014.25
2016-11-15T04:04:18.537Z,1014.2
2016-11-15T04:05:28.824Z,1014.19
2016-11-15T04:06:38.822Z,1014.19
2016-11-15T04:07:49.119Z,1014.17
2016-11-15T04:08:59.091Z,1014.15
2016-11-15T04:10:09.079Z,1014.12
2016-11-15T04:11:19.068Z,1014.06
2016-11-15T04:12:29.365Z,1014.12
2016-11-15T04:13:39.663Z,1014.07
2016-11-15T04:14:49.324Z,1014.12
2016-11-15T04:15:59.330Z,1014.13
2016-11-15T04:17:09.006Z,1014.12
2016-11-15T04:18:18.977Z,1014.08
2016-11-15T04:19:28.644Z,1014.06
2016-11-15T04:20:38.934Z,1014.06
2016-11-15T04:21:49.217Z,1013.99
2016-11-15T04:22:59.222Z,1013.97
2016-11-15T04:24:08.589Z,1014.02
2016-11-15T04:25:18.891Z,1014.02
2016-11-15T04:26:29.205Z,1014
2016-11-15T04:27:38.563Z,1014.06
2016-11-15T04:28:48.843Z,1013.98
2016-11-15T04:29:59.135Z,1013.98
2016-11-15T04:31:09.116Z,1014.01
2016-11-15T04:32:19.127Z,1014.02
2016-11-15T04:33:29.109Z,1013.98
2016-11-15T04:34:39.305Z,1013.95
2016-11-15T04:35:49.597Z,1013.98
2016-11-15T04:36:59.274Z,1013.96
2016-11-15T04:38:09.812Z,1013.93
2016-11-15T04:39:20.123Z,1013.99
2016-11-15T04:40:30.103Z,1014.02
2016-11-15T04:41:40.430Z,1013.99
2016-11-15T04:42:50.719Z,1014.03
2016-11-15T04:44:00.422Z,1014
2016-11-15T04:45:10.409Z,1014.01
2016-11-15T04:46:20.709Z,1014.02
2016-11-15T04:47:30.378Z,1014.11
2016-11-15T04:48:40.376Z,1014.09
2016-11-15T04:49:50.673Z,1014.11
2016-11-15T04:51:00.976Z,1014.16
2016-11-15T04:52:10.966Z,1014.14
2016-11-15T04:53:21.259Z,1014.22
2016-11-15T04:54:30.930Z,1014.26
2016-11-15T04:55:40.910Z,1014.24
2016-11-15T04:56:50.903Z,1014.21
2016-11-15T04:58:00.658Z,1014.2
2016-11-15T04:59:10.841Z,1014.15
2016-11-15T05:00:20.248Z,1014.18
2016-11-15T05:01:30.539Z,1014.13
2016-11-15T05:02:40.200Z,1014.12
2016-11-15T05:03:50.166Z,1014.1
2016-11-15T05:05:00.160Z,1014.13
2016-11-15T05:06:10.458Z,1014.08
2016-11-15T05:07:20.751Z,1014.12
2016-11-15T05:08:30.721Z,1014.1
2016-11-15T05:09:41.001Z,1014.11
2016-11-15T05:10:51.840Z,1014.12
2016-11-15T05:12:02.543Z,1014.11
2016-11-15T05:13:12.843Z,1014.05
2016-11-15T05:14:23.327Z,1014.03
2016-11-15T05:15:33.647Z,1014.03
2016-11-15T05:16:44.535Z,1014.04
2016-11-15T05:17:54.854Z,1014.04
2016-11-15T05:19:05.131Z,1014.09
2016-11-15T05:20:15.406Z,1014.16
2016-11-15T05:21:25.595Z,1014.15
2016-11-15T05:22:35.881Z,1014.15
2016-11-15T05:23:46.166Z,1014.13
2016-11-15T05:24:56.768Z,1014.15
2016-11-15T05:26:08.636Z,1014.18
2016-11-15T05:27:18.918Z,1014.22
2016-11-15T05:28:29.112Z,1014.25
2016-11-15T05:29:40.726Z,1014.24
2016-11-15T05:30:51.017Z,1014.24
2016-11-15T05:32:00.709Z,1014.32
2016-11-15T05:33:10.719Z,1014.28
2016-11-15T05:34:21.271Z,1014.27
2016-11-15T05:35:30.943Z,1014.24
2016-11-15T05:36:40.937Z,1014.23
2016-11-15T05:37:51.230Z,1014.24
2016-11-15T05:39:00.894Z,1014.17
2016-11-15T05:40:11.191Z,1014.18
2016-11-15T05:41:21.158Z,1014.22
2016-11-15T05:42:31.138Z,1014.25
2016-11-15T05:43:41.111Z,1014.24
2016-11-15T05:44:50.794Z,1014.24
2016-11-15T05:46:01.093Z,1014.25
2016-11-15T05:47:10.761Z,1014.23
2016-11-15T05:48:21.047Z,1014.27
2016-11-15T05:49:30.404Z,1014.23
2016-11-15T05:50:40.678Z,1014.25
2016-11-15T05:51:50.368Z,1014.23
2016-11-15T05:53:00.660Z,1014.25
2016-11-15T05:54:10.629Z,1014.25
2016-11-15T05:55:20.909Z,1014.25
2016-11-15T05:56:30.886Z,1014.35
2016-11-15T05:57:41.176Z,1014.36
2016-11-15T05:58:51.133Z,1014.39
2016-11-15T06:00:01.461Z,1014.42
2016-11-15T06:01:11.432Z,1014.41
2016-11-15T06:02:20.791Z,1014.45
2016-11-15T06:03:31.084Z,1014.5
2016-11-15T06:04:41.046Z,1014.46
2016-11-15T06:05:50.724Z,1014.45
2016-11-15T06:07:00.395Z,1014.48
2016-11-15T06:08:10.383Z,1014.44
2016-11-15T06:09:20.697Z,1014.35
2016-11-15T06:10:30.981Z,1014.34
2016-11-15T06:11:40.965Z,1014.31
2016-11-15T06:12:51.253Z,1014.24
2016-11-15T06:14:01.537Z,1014.24
2016-11-15T06:15:11.815Z,1014.25
2016-11-15T06:16:21.783Z,1014.23
2016-11-15T06:17:32.060Z,1014.27
2016-11-15T06:18:42.339Z,1014.26
2016-11-15T06:19:52.635Z,1014.23
2016-11-15T06:21:02.929Z,1014.24
2016-11-15T06:22:13.260Z,1014.2
2016-11-15T06:23:23.541Z,1014.21
2016-11-15T06:24:33.524Z,1014.24
2016-11-15T06:25:43.505Z,1014.25
2016-11-15T06:26:53.792Z,1014.32
2016-11-15T06:28:04.062Z,1014.29
2016-11-15T06:29:14.354Z,1014.35
2016-11-15T06:30:24.029Z,1014.42
2016-11-15T06:31:33.990Z,1014.43
2016-11-15T06:32:44.275Z,1014.49
2016-11-15T06:33:54.271Z,1014.49
2016-11-15T06:35:04.539Z,1014.45
2016-11-15T06:36:14.816Z,1014.4
2016-11-15T06:37:25.124Z,1014.32
2016-11-15T06:38:35.093Z,1014.33
2016-11-15T06:39:45.066Z,1014.29
2016-11-15T06:40:55.028Z,1014.31
2016-11-15T06:42:05.004Z,1014.31
2016-11-15T06:43:14.977Z,1014.32
2016-11-15T06:44:24.938Z,1014.36
2016-11-15T06:45:35.223Z,1014.39
2016-11-15T06:46:45.210Z,1014.37
2016-11-15T06:47:55.496Z,1014.4
2016-11-15T06:49:05.165Z,1014.38
2016-11-15T06:50:15.441Z,1014.39
2016-11-15T06:51:25.125Z,1014.41
2016-11-15T06:52:35.103Z,1014.35
2016-11-15T06:53:45.424Z,1014.35
2016-11-15T06:54:55.708Z,1014.29
2016-11-15T06:56:06.019Z,1014.36
2016-11-15T06:57:16.311Z,1014.36
2016-11-15T06:58:25.983Z,1014.37
2016-11-15T06:59:36.315Z,1014.32
2016-11-15T07:00:46.601Z,1014.34
2016-11-15T07:01:56.584Z,1014.35
2016-11-15T07:03:06.573Z,1014.36
2016-11-15T07:04:16.868Z,1014.37
2016-11-15T07:05:27.256Z,1014.43
2016-11-15T07:06:37.568Z,1014.43
2016-11-15T07:07:47.861Z,1014.43
2016-11-15T07:08:57.519Z,1014.46
2016-11-15T07:10:07.506Z,1014.47
2016-11-15T07:11:17.715Z,1014.45
2016-11-15T07:12:27.676Z,1014.48
2016-11-15T07:13:37.667Z,1014.46
2016-11-15T07:14:47.641Z,1014.47
2016-11-15T07:15:57.920Z,1014.47
2016-11-15T07:17:07.920Z,1014.49
2016-11-15T07:18:17.895Z,1014.46
2016-11-15T07:19:28.180Z,1014.45
2016-11-15T07:20:38.161Z,1014.46
2016-11-15T07:21:48.147Z,1014.45
2016-11-15T07:22:58.413Z,1014.49
2016-11-15T07:24:08.387Z,1014.46
2016-11-15T07:25:18.691Z,1014.47
2016-11-15T07:26:28.985Z,1014.5
2016-11-15T07:27:39.285Z,1014.55
2016-11-15T07:28:49.561Z,1014.55
2016-11-15T07:29:59.545Z,1014.61
2016-11-15T07:31:09.838Z,1014.63
2016-11-15T07:32:20.141Z,1014.63
2016-11-15T07:33:29.831Z,1014.6
2016-11-15T07:34:39.198Z,1014.61
2016-11-15T07:35:49.201Z,1014.6
2016-11-15T07:36:59.492Z,1014.6
2016-11-15T07:38:09.731Z,1014.55
2016-11-15T07:39:19.701Z,1014.55
2016-11-15T07:40:29.700Z,1014.49
2016-11-15T07:41:39.679Z,1014.46
2016-11-15T07:42:49.657Z,1014.41
2016-11-15T07:43:59.647Z,1014.42
2016-11-15T07:45:09.334Z,1014.37
2016-11-15T07:46:19.634Z,1014.36
2016-11-15T07:47:29.922Z,1014.35
2016-11-15T07:48:40.216Z,1014.33
2016-11-15T07:49:50.397Z,1014.42
2016-11-15T07:51:00.692Z,1014.45
2016-11-15T07:52:11.141Z,1014.44
2016-11-15T07:53:21.104Z,1014.42
2016-11-15T07:54:31.147Z,1014.42
2016-11-15T07:55:41.434Z,1014.42
2016-11-15T07:56:51.737Z,1014.4
2016-11-15T07:58:01.737Z,1014.39
2016-11-15T07:59:11.719Z,1014.42
2016-11-15T08:00:22.005Z,1014.46
2016-11-15T08:01:31.682Z,1014.45
2016-11-15T08:02:41.688Z,1014.5
2016-11-15T08:03:51.960Z,1014.54
2016-11-15T08:05:02.244Z,1014.51
2016-11-15T08:06:11.924Z,1014.54
2016-11-15T08:07:22.209Z,1014.53
2016-11-15T08:08:31.882Z,1014.49
2016-11-15T08:09:42.189Z,1014.49
2016-11-15T08:10:52.512Z,1014.49
2016-11-15T08:12:02.797Z,1014.5
2016-11-15T08:13:12.783Z,1014.44
2016-11-15T08:14:22.771Z,1014.46
2016-11-15T08:15:33.057Z,1014.44
2016-11-15T08:16:43.039Z,1014.4
2016-11-15T08:17:52.715Z,1014.4
2016-11-15T08:19:03.063Z,1014.43
2016-11-15T08:20:12.754Z,1014.44
2016-11-15T08:21:22.724Z,1014.49
2016-11-15T08:22:33.012Z,1014.52
2016-11-15T08:23:43.371Z,1014.54
2016-11-15T08:24:53.112Z,1014.58
2016-11-15T08:26:03.409Z,1014.56
2016-11-15T08:27:13.392Z,1014.54
2016-11-15T08:28:23.355Z,1014.55
2016-11-15T08:29:33.635Z,1014.58
2016-11-15T08:30:43.613Z,1014.59
2016-11-15T08:31:53.605Z,1014.56
2016-11-15T08:33:03.860Z,1014.55
2016-11-15T08:34:14.136Z,1014.53
2016-11-15T08:35:23.820Z,1014.5
2016-11-15T08:36:34.175Z,1014.5
2016-11-15T08:37:44.468Z,1014.53
2016-11-15T08:38:54.442Z,1014.53
2016-11-15T08:40:04.405Z,1014.52
2016-11-15T08:41:14.914Z,1014.55
2016-11-15T08:42:25.215Z,1014.53
2016-11-15T08:43:35.524Z,1014.57
2016-11-15T08:44:45.519Z,1014.55
2016-11-15T08:45:55.844Z,1014.62
2016-11-15T08:47:05.838Z,1014.64
2016-11-15T08:48:16.125Z,1014.65
2016-11-15T08:49:26.389Z,1014.62
2016-11-15T08:50:36.684Z,1014.62
2016-11-15T08:51:46.980Z,1014.69
2016-11-15T08:52:56.940Z,1014.68
2016-11-15T08:54:07.271Z,1014.7
2016-11-15T08:55:17.557Z,1014.76
2016-11-15T08:56:27.846Z,1014.76
2016-11-15T08:57:38.135Z,1014.74
2016-11-15T08:58:48.408Z,1014.73
2016-11-15T08:59:58.714Z,1014.74
2016-11-15T09:01:08.703Z,1014.76
2016-11-15T09:02:18.355Z,1014.75
2016-11-15T09:03:28.012Z,1014.74
2016-11-15T09:04:37.680Z,1014.71
2016-11-15T09:05:47.653Z,1014.74
2016-11-15T09:06:57.337Z,1014.77
2016-11-15T09:08:07.306Z,1014.75
2016-11-15T09:09:17.582Z,1014.77
2016-11-15T09:10:27.890Z,1014.77
2016-11-15T09:11:38.192Z,1014.73
2016-11-15T09:12:48.195Z,1014.7
2016-11-15T09:13:58.540Z,1014.65
2016-11-15T09:15:08.848Z,1014.6
2016-11-15T09:16:18.826Z,1014.61
2016-11-15T09:17:28.790Z,1014.57
2016-11-15T09:18:38.766Z,1014.51
2016-11-15T09:19:48.163Z,1014.54
2016-11-15T09:20:58.125Z,1014.56
2016-11-15T09:22:08.431Z,1014.53
2016-11-15T09:23:18.708Z,1014.5
2016-11-15T09:24:28.706Z,1014.47
2016-11-15T09:25:38.703Z,1014.47
2016-11-15T09:26:48.692Z,1014.47
2016-11-15T09:27:58.665Z,1014.44
2016-11-15T09:29:08.948Z,1014.43
2016-11-15T09:30:19.245Z,1014.42
2016-11-15T09:31:29.531Z,1014.4
2016-11-15T09:32:39.511Z,1014.39
2016-11-15T09:33:50.369Z,1014.4
2016-11-15T09:35:00.371Z,1014.45
2016-11-15T09:36:10.679Z,1014.45
2016-11-15T09:37:20.350Z,1014.41
2016-11-15T09:38:30.658Z,1014.36
2016-11-15T09:39:40.951Z,1014.37
2016-11-15T09:40:50.985Z,1014.31
2016-11-15T09:42:00.667Z,1014.29
2016-11-15T09:43:10.945Z,1014.27
2016-11-15T09:44:20.918Z,1014.24
2016-11-15T09:45:31.209Z,1014.26
2016-11-15T09:46:41.696Z,1014.26
2016-11-15T09:47:51.375Z,1014.3
2016-11-15T09:49:01.687Z,1014.25
2016-11-15T09:50:11.699Z,1014.24
2016-11-15T09:51:21.983Z,1014.24
2016-11-15T09:52:31.963Z,1014.23
2016-11-15T09:53:42.251Z,1014.2
2016-11-15T09:54:52.532Z,1014.21
2016-11-15T09:56:02.844Z,1014.24
2016-11-15T09:57:13.150Z,1014.21
2016-11-15T09:58:23.455Z,1014.17
2016-11-15T09:59:33.430Z,1014.18
2016-11-15T10:00:43.420Z,1014.16
2016-11-15T10:01:53.743Z,1014.09
2016-11-15T10:03:03.739Z,1014.08
2016-11-15T10:04:13.708Z,1014.03
2016-11-15T10:05:23.698Z,1014.03
2016-11-15T10:06:33.994Z,1014.01
2016-11-15T10:07:44.282Z,1014.03
2016-11-15T10:08:54.270Z,1014.03
2016-11-15T10:10:04.247Z,1014.03
2016-11-15T10:11:13.630Z,1014
2016-11-15T10:12:24.152Z,1013.99
2016-11-15T10:13:34.464Z,1013.98
2016-11-15T10:14:44.474Z,1013.93
2016-11-15T10:15:54.452Z,1013.97
2016-11-15T10:17:04.439Z,1014
2016-11-15T10:18:14.431Z,1014
2016-11-15T10:19:24.732Z,1014.05
2016-11-15T10:20:34.395Z,1014.02
2016-11-15T10:21:44.708Z,1013.97
2016-11-15T10:22:54.984Z,1013.9
2016-11-15T10:24:05.280Z,1013.87
2016-11-15T10:25:15.274Z,1013.86
2016-11-15T10:26:25.278Z,1013.85
2016-11-15T10:27:35.563Z,1013.82
2016-11-15T10:28:45.545Z,1013.77
2016-11-15T10:29:55.858Z,1013.76
2016-11-15T10:31:06.145Z,1013.78
2016-11-15T10:32:16.456Z,1013.79
2016-11-15T10:33:26.760Z,1013.8
2016-11-15T10:34:36.428Z,1013.77
2016-11-15T10:35:46.713Z,1013.76
2016-11-15T10:36:57.027Z,1013.69
2016-11-15T10:38:07.023Z,1013.69
2016-11-15T10:39:17.022Z,1013.68
2016-11-15T10:40:27.246Z,1013.65
2016-11-15T10:41:37.243Z,1013.63
2016-11-15T10:42:47.220Z,1013.63
2016-11-15T10:43:57.220Z,1013.61
2016-11-15T10:45:07.556Z,1013.61
2016-11-15T10:46:17.858Z,1013.6
2016-11-15T10:47:28.181Z,1013.63
2016-11-15T10:48:38.518Z,1013.64
2016-11-15T10:49:48.499Z,1013.58
2016-11-15T10:50:58.808Z,1013.57
2016-11-15T10:52:08.794Z,1013.57
2016-11-15T10:53:19.087Z,1013.58
2016-11-15T10:54:28.468Z,1013.57
2016-11-15T10:55:38.154Z,1013.61
2016-11-15T10:56:48.463Z,1013.57
2016-11-15T10:57:58.463Z,1013.59
2016-11-15T10:59:08.779Z,1013.58
2016-11-15T11:00:18.775Z,1013.59
2016-11-15T11:01:29.087Z,1013.6
2016-11-15T11:02:39.398Z,1013.58
2016-11-15T11:03:49.689Z,1013.55
2016-11-15T11:04:59.995Z,1013.49
2016-11-15T11:06:10.298Z,1013.51
2016-11-15T11:07:20.605Z,1013.48
2016-11-15T11:08:30.010Z,1013.45
2016-11-15T11:09:40.928Z,1013.38
2016-11-15T11:10:51.856Z,1013.38
2016-11-15T11:12:02.166Z,1013.4
2016-11-15T11:13:12.170Z,1013.4
2016-11-15T11:14:22.871Z,1013.43
2016-11-15T11:15:33.592Z,1013.41
2016-11-15T11:16:43.908Z,1013.41
2016-11-15T11:17:53.893Z,1013.4
2016-11-15T11:19:03.877Z,1013.39
2016-11-15T11:20:14.190Z,1013.4
2016-11-15T11:21:24.970Z,1013.36
2016-11-15T11:22:35.718Z,1013.36
2016-11-15T11:23:46.025Z,1013.36
2016-11-15T11:24:56.312Z,1013.33
2016-11-15T11:26:06.317Z,1013.3
2016-11-15T11:27:16.404Z,1013.27
2016-11-15T11:28:27.351Z,1013.24
2016-11-15T11:29:37.587Z,1013.22
2016-11-15T11:30:49.538Z,1013.27
2016-11-15T11:31:59.526Z,1013.26
2016-11-15T11:33:09.828Z,1013.3
2016-11-15T11:34:20.362Z,1013.25
2016-11-15T11:47:29.400Z,1013.1
2016-11-15T11:49:43.235Z,1013.13
2016-11-15T11:50:53.531Z,1013.13
2016-11-15T14:36:00.499Z,1011.02
2016-11-15T14:37:10.172Z,1010.96
2016-11-15T14:38:20.153Z,1010.99
2016-11-15T14:39:29.827Z,1010.95
2016-11-15T14:40:40.100Z,1010.98
2016-11-15T14:41:50.091Z,1010.93
2016-11-15T14:43:00.090Z,1010.96
2016-11-15T14:44:10.408Z,1010.92
2016-11-15T14:45:20.700Z,1010.83
2016-11-15T14:46:31.001Z,1010.84
2016-11-15T14:47:41.276Z,1010.79
2016-11-15T14:48:51.579Z,1010.83
2016-11-15T14:50:01.562Z,1010.85
2016-11-15T14:51:11.529Z,1010.86
2016-11-15T14:52:21.513Z,1010.89
2016-11-15T14:53:31.816Z,1010.92
2016-11-15T14:54:41.491Z,1010.91
2016-11-15T14:55:51.452Z,1010.88
2016-11-15T14:57:01.456Z,1010.86
2016-11-15T14:58:11.439Z,1010.85
2016-11-15T14:59:21.113Z,1010.83
2016-11-15T15:00:31.111Z,1010.87
2016-11-15T15:01:41.090Z,1010.84
2016-11-15T15:02:51.415Z,1010.86
2016-11-15T15:04:01.113Z,1010.85
2016-11-15T15:05:11.106Z,1010.85
2016-11-15T15:06:21.081Z,1010.83
2016-11-15T15:07:31.086Z,1010.84
2016-11-15T15:08:41.373Z,1010.76
2016-11-15T15:09:51.702Z,1010.77
2016-11-15T15:11:01.706Z,1010.78
2016-11-15T15:12:11.982Z,1010.78
2016-11-15T15:13:21.332Z,1010.73
2016-11-15T15:14:31.623Z,1010.72
2016-11-15T15:15:41.908Z,1010.73
2016-11-15T15:16:51.963Z,1010.75
2016-11-15T15:18:02.249Z,1010.73
2016-11-15T15:19:12.540Z,1010.71
2016-11-15T15:20:22.211Z,1010.71
2016-11-15T15:21:32.503Z,1010.73
2016-11-15T15:22:42.196Z,1010.8
2016-11-15T15:23:52.173Z,1010.73
2016-11-15T15:25:02.176Z,1010.73
2016-11-15T15:26:12.198Z,1010.7
2016-11-15T15:27:22.163Z,1010.67
2016-11-15T15:28:32.168Z,1010.56
2016-11-15T15:29:42.148Z,1010.56
2016-11-15T15:30:52.434Z,1010.49
2016-11-15T15:32:02.398Z,1010.52
2016-11-15T15:33:12.681Z,1010.52
2016-11-15T15:34:22.380Z,1010.43
2016-11-15T15:35:32.686Z,1010.49
2016-11-15T15:36:42.708Z,1010.45
2016-11-15T15:37:52.703Z,1010.4
2016-11-15T15:39:02.706Z,1010.36
2016-11-15T15:40:13.022Z,1010.4
2016-11-15T15:41:23.322Z,1010.42
2016-11-15T15:42:32.703Z,1010.39
2016-11-15T15:43:42.413Z,1010.44
2016-11-15T15:44:52.118Z,1010.43
2016-11-15T15:46:02.411Z,1010.39
2016-11-15T15:47:12.701Z,1010.45
2016-11-15T15:48:22.988Z,1010.38
2016-11-15T15:49:33.290Z,1010.4
2016-11-15T15:50:43.267Z,1010.38
2016-11-15T15:51:53.582Z,1010.37
2016-11-15T15:53:03.884Z,1010.35
2016-11-15T15:54:14.199Z,1010.37
2016-11-15T15:55:23.882Z,1010.37
2016-11-15T15:56:33.874Z,1010.36
2016-11-15T15:57:44.172Z,1010.33
2016-11-15T15:58:53.956Z,1010.31
2016-11-15T16:00:04.285Z,1010.3
2016-11-15T16:01:14.659Z,1010.29
2016-11-15T16:02:24.651Z,1010.3
2016-11-15T16:03:35.290Z,1010.36
2016-11-15T16:04:45.314Z,1010.41
2016-11-15T16:05:55.648Z,1010.42
2016-11-15T16:07:05.974Z,1010.43
2016-11-15T16:08:16.026Z,1010.47
2016-11-15T16:09:25.452Z,1010.45
2016-11-15T16:10:35.856Z,1010.43
2016-11-15T16:11:45.605Z,1010.43
2016-11-15T16:12:55.293Z,1010.39
2016-11-15T16:14:05.350Z,1010.35
2016-11-15T16:15:15.426Z,1010.4
2016-11-15T16:16:25.850Z,1010.39
2016-11-15T16:17:36.178Z,1010.39
2016-11-15T16:18:46.611Z,1010.42
2016-11-15T16:19:56.935Z,1010.37
2016-11-15T16:21:07.255Z,1010.37
2016-11-15T16:22:17.586Z,1010.35
2016-11-15T16:23:27.893Z,1010.42
2016-11-15T16:24:37.908Z,1010.43
2016-11-15T16:25:48.261Z,1010.4
2016-11-15T16:26:57.941Z,1010.4
2016-11-15T16:28:07.947Z,1010.39
2016-11-15T16:29:17.937Z,1010.38
2016-11-15T16:30:28.252Z,1010.38
2016-11-15T16:31:37.934Z,1010.38
2016-11-15T16:32:48.296Z,1010.33
2016-11-15T16:33:58.624Z,1010.3
2016-11-15T16:35:08.940Z,1010.28
2016-11-15T16:36:18.953Z,1010.28
2016-11-15T16:37:29.273Z,1010.28
2016-11-15T16:38:39.595Z,1010.36
2016-11-15T16:39:49.597Z,1010.36
2016-11-15T16:40:59.927Z,1010.35
2016-11-15T16:42:10.227Z,1010.35
2016-11-15T16:43:20.511Z,1010.36
2016-11-15T16:44:30.859Z,1010.32
2016-11-15T16:45:41.244Z,1010.29
2016-11-15T16:46:51.257Z,1010.32
2016-11-15T16:48:01.637Z,1010.32
2016-11-15T16:49:11.678Z,1010.32
2016-11-15T16:50:21.359Z,1010.21
2016-11-15T16:51:31.689Z,1010.18
2016-11-15T16:52:42.024Z,1010.1
2016-11-15T16:53:51.102Z,1010.14
2016-11-15T16:55:01.172Z,1010.11
2016-11-15T16:56:11.543Z,1010.16
2016-11-15T16:57:21.894Z,1010.14
2016-11-15T16:58:32.180Z,1010.15
2016-11-15T16:59:42.262Z,1010.15
2016-11-15T17:00:52.586Z,1010.14
2016-11-15T17:02:02.696Z,1010.12
2016-11-15T17:03:12.754Z,1010.12
2016-11-15T17:04:22.810Z,1010.15
2016-11-15T17:05:33.232Z,1010.11
2016-11-15T17:06:43.556Z,1010.11
2016-11-15T17:07:53.913Z,1010.09
2016-11-15T17:09:04.275Z,1010.06
2016-11-15T17:10:13.680Z,1010.07
2016-11-15T17:11:23.992Z,1010.05
2016-11-15T17:12:34.056Z,1010.04
2016-11-15T17:13:44.092Z,1010
2016-11-15T17:14:54.437Z,1009.97
2016-11-15T17:16:04.540Z,1009.98
2016-11-15T17:17:15.010Z,1010.03
2016-11-15T17:18:24.773Z,1010.01
2016-11-15T17:19:35.116Z,1009.98
2016-11-15T17:20:44.529Z,1010
2016-11-15T17:21:55.003Z,1009.99
2016-11-15T17:23:05.345Z,1009.98
2016-11-15T17:24:15.731Z,1009.96
2016-11-15T17:25:26.097Z,1009.9
2016-11-15T17:26:36.438Z,1009.97
2016-11-15T17:27:46.442Z,1009.98
2016-11-15T17:28:56.178Z,1009.94
2016-11-15T17:30:06.487Z,1009.98
2016-11-15T17:31:16.492Z,1010.02
2016-11-15T17:32:26.739Z,1009.98
2016-11-15T17:33:36.283Z,1009.99
2016-11-15T17:34:46.047Z,1009.98
2016-11-15T17:35:56.140Z,1010.02
2016-11-15T17:37:06.606Z,1010.07
2016-11-15T17:38:17.170Z,1010.01